KGRF

Gray AAF Airport

Fort Lewis/Tacoma, Washington, USA
METAR KGRF 230656Z AUTO 00000KT 10SM CLR M06/M06 A3044 RMK AO2 SLP316 T10611064 $
Observed Flight Rules
Feb-23 @ 06:56 UTC (an hour ago) Visual Flight Rules
Wind Visibility Clouds
Calm 10 miles
  • Clear skies
Temperatures Readings
Current -6°C / 21°F
Dewpoint -6°C / 21°F
Humidity 100%
Altimeter 30.44" Hg
Pressure 1031.6 hPa
Elevation 92
METAR KGRF 230656Z AUTO 00000KT 10SM CLR M06/M06 A3044 RMK AO2 SLP316 T10611064 $
Observed Flight Rules
Feb-23 @ 06:56 UTC
(an hour ago)
VFR
Wind Visibility
Calm 10 miles
Clouds
  • Clear skies
Temperature Dewpoint
-6°C / 21°F -6°C / 21°F
Humidity Altimeter Pressure
100% 30.44" Hg 1031.6 hPa